Jacobabad Weather



Jacobabad's Current Weather

Temprature 23.06o broken clouds

broken clouds

Rain: 0 %

Min Temprature23.06o
Max Temprature23.06o
Humidity21
Wind Speed2.72 m/h
Sun Rise06:54:10
Sun Set18:24:25
Current Time: 27-Feb-2020 00:29:41
Lat/Lon: 28.28, 68.44




Jacobabad's Geo Location



Jacobabad's Weather Forecast

Time Overall Temp Min Temp Max Temp Humidity Wind Speed Rain
27-Feb-2020 (Thu)
02:00:00 overcast clouds 22.660 22.660 22.660 21 3.85 m/h 0 %
05:00:00 broken clouds 20.940 20.940 20.940 24 4.03 m/h 0 %
08:00:00 broken clouds 22.840 22.840 22.840 24 4.2 m/h 0 %
11:00:00 broken clouds 30.580 30.580 30.580 16 6.06 m/h 0 %
14:00:00 scattered clouds 34.180 34.180 34.180 12 3.67 m/h 0 %
17:00:00 scattered clouds 34.860 34.860 34.860 12 1.49 m/h 0 %
20:00:00 clear sky 24.250 24.250 24.250 22 0.32 m/h 0 %
23:00:00 clear sky 24.370 24.370 24.370 22 3.29 m/h 0 %
28-Feb-2020 (Fri)
02:00:00 clear sky 22.900 22.900 22.900 23 4.5 m/h 0 %
05:00:00 clear sky 18.390 18.390 18.390 33 1.98 m/h 0 %
08:00:00 clear sky 21.270 21.270 21.270 30 3.25 m/h 0 %
11:00:00 clear sky 30.030 30.030 30.030 18 3.82 m/h 0 %
14:00:00 clear sky 32.540 32.540 32.540 14 4.15 m/h 0 %
17:00:00 clear sky 31.650 31.650 31.650 14 2.86 m/h 0 %
20:00:00 clear sky 25.290 25.290 25.290 29 6.61 m/h 0 %
23:00:00 clear sky 22.360 22.360 22.360 36 3.89 m/h 0 %
29-Feb-2020 (Sat)
02:00:00 clear sky 20.120 20.120 20.120 40 2.86 m/h 0 %
05:00:00 clear sky 17.600 17.600 17.600 46 2.15 m/h 0 %
08:00:00 clear sky 19.780 19.780 19.780 44 2.12 m/h 0 %
11:00:00 clear sky 26.850 26.850 26.850 27 0.5 m/h 0 %
14:00:00 clear sky 29.770 29.770 29.770 22 1.67 m/h 0 %
17:00:00 clear sky 29.840 29.840 29.840 21 2.92 m/h 0 %
20:00:00 clear sky 23.560 23.560 23.560 39 5.34 m/h 0 %
23:00:00 clear sky 21.330 21.330 21.330 49 6.34 m/h 0 %
01-Mar-2020 (Sun)
02:00:00 clear sky 19.670 19.670 19.670 54 6 m/h 0 %
05:00:00 clear sky 16.490 16.490 16.490 63 0.56 m/h 0 %
08:00:00 clear sky 18.410 18.410 18.410 57 2.18 m/h 0 %
11:00:00 clear sky 24.990 24.990 24.990 38 2.84 m/h 0 %
14:00:00 clear sky 28.700 28.700 28.700 29 3.93 m/h 0 %
17:00:00 few clouds 28.770 28.770 28.770 26 2.92 m/h 0 %
20:00:00 broken clouds 22.190 22.190 22.190 40 2.32 m/h 0 %
23:00:00 scattered clouds 21.080 21.080 21.080 41 2.26 m/h 0 %
02-Mar-2020 (Mon)
02:00:00 clear sky 19.470 19.470 19.470 45 1.96 m/h 0 %
05:00:00 clear sky 18.190 18.190 18.190 49 2.39 m/h 0 %
08:00:00 clear sky 20.190 20.190 20.190 45 2.46 m/h 0 %
11:00:00 clear sky 28.020 28.020 28.020 28 2.97 m/h 0 %
14:00:00 clear sky 31.600 31.600 31.600 20 0.21 m/h 0 %
17:00:00 clear sky 31.500 31.500 31.500 19 3.06 m/h 0 %
20:00:00 clear sky 25.090 25.090 25.090 30 3.34 m/h 0 %
23:00:00 clear sky 22.090 22.090 22.090 34 2.42 m/h 0 %

Famous Cities (61)